Mojave, CA

5:08 AM PST on November 13, 2019 (GMT -0800)
Mojave

Weather History for KMHV - June, 2019

Change the Weather History Date:

Friday, June 7, 2019

  Actual Average Record
Temperature  
Mean Temperature 72 °F -  
Max Temperature 80 °F 86 °F 102 °F (2013)
Min Temperature 62 °F 60 °F 47 °F (1988)
Cooling Degree Days 7    
Growing Degree Days 22 (Base 50)    
Moisture  
Dew Point 37 °F    
Average Humidity 29    
Maximum Humidity 46    
Minimum Humidity 21    
Precipitation  
Precipitation 0.00 in - - ()
Sea Level Pressure  
Sea Level Pressure 29.88 in    
Wind  
Wind Speed 23 mph (West)    
Max Wind Speed 32 mph    
Max Gust Speed 44 mph    
Visibility 10 miles    
Events      
Averages and records for this station are not official NWS values.
T = Trace of Precipitation, MM = Missing Value Source: NWS Daily Summary

Daily Weather History Graph

Daily Weather History Graph

Search for Another Location

Airport or City:

Astronomy

Jun. 07, 2019 Rise Set
Actual Time 5:38 AM PDT 8:04 PM PDT
Civil Twilight 5:08 AM PDT 8:34 PM PDT
Nautical Twilight 4:32 AM PDT 9:10 PM PDT
Astronomical Twilight 3:52 AM PDT 9:50 PM PDT
Moon 9:58 AM PDT (6/7) No Moon Set
Length of Visible Light 15h 25m
Length of Day
14h 26m
Waxing Crescent, 23% of the Moon is Illuminated
Jun 7
Waxing Crescent
Jun 9
First Quarter
Jun 17
Full
Jun 25
Last Quarter
Jul 2
New

Hourly Weather History & Observations

Time (PDT) Temp. Dew Point Humidity Pressure Visibility Wind Dir Wind Speed Gust Speed Precip Events Conditions
12:00 AM 73.4 °F 42.8 °F 33% 29.90 in 10.0 mi West 21.9 mph - N/A   Clear
12:20 AM 71.6 °F 42.8 °F 35% 29.90 in 10.0 mi West 23.0 mph - N/A   Clear
12:40 AM 69.8 °F 44.6 °F 40% 29.90 in 10.0 mi West 24.2 mph 32.2 mph N/A   Clear
1:00 AM 69.8 °F 44.6 °F 40% 29.90 in 10.0 mi WNW 23.0 mph 28.8 mph N/A   Clear
1:20 AM 68.0 °F 44.6 °F 43% 29.90 in 10.0 mi West 24.2 mph 31.1 mph N/A   Clear
1:40 AM 68.0 °F 44.6 °F 43% 29.89 in 10.0 mi West 25.3 mph 32.2 mph N/A   Clear
2:00 AM 68.0 °F 44.6 °F 43% 29.90 in 10.0 mi West 26.5 mph - N/A   Clear
2:20 AM 66.2 °F 44.6 °F 46% 29.91 in 10.0 mi WSW 16.1 mph - N/A   Clear
2:40 AM 66.2 °F 44.6 °F 46% 29.90 in 10.0 mi West 13.8 mph 20.7 mph N/A   Clear
3:00 AM 66.2 °F 42.8 °F 43% 29.90 in 10.0 mi WSW 11.5 mph - N/A   Clear
3:20 AM 66.2 °F 42.8 °F 43% 29.90 in 10.0 mi WSW 13.8 mph - N/A   Clear
3:40 AM 66.2 °F 42.8 °F 43% 29.89 in 10.0 mi West 21.9 mph 28.8 mph N/A   Clear
4:00 AM 66.2 °F 42.8 °F 43% 29.89 in 10.0 mi West 26.5 mph 33.4 mph N/A   Clear
4:20 AM 66.2 °F 41.0 °F 40% 29.89 in 10.0 mi West 24.2 mph - N/A   Clear
4:40 AM 66.2 °F 41.0 °F 40% 29.89 in 10.0 mi West 21.9 mph 28.8 mph N/A   Clear
5:00 AM 66.2 °F 39.2 °F 37% 29.88 in 10.0 mi WNW 24.2 mph - N/A   Clear
5:20 AM 66.2 °F 39.2 °F 37% 29.88 in 10.0 mi West 24.2 mph 29.9 mph N/A   Clear
5:40 AM 66.2 °F 39.2 °F 37% 29.89 in 10.0 mi West 21.9 mph - N/A   Clear
6:00 AM 66.2 °F 39.2 °F 37% 29.90 in 10.0 mi West 19.6 mph - N/A   Clear
6:20 AM 66.2 °F 39.2 °F 37% 29.90 in 10.0 mi WNW 16.1 mph 21.9 mph N/A   Clear
6:40 AM 68.0 °F 39.2 °F 35% 29.89 in 10.0 mi WNW 19.6 mph - N/A   Clear
7:00 AM 68.0 °F 37.4 °F 33% 29.90 in 10.0 mi West 16.1 mph - N/A   Clear
7:20 AM 69.8 °F 37.4 °F 31% 29.90 in 10.0 mi West 12.7 mph 20.7 mph N/A   Clear
7:40 AM 69.8 °F 37.4 °F 31% 29.91 in 10.0 mi SW 12.7 mph 18.4 mph N/A   Clear
8:00 AM 69.8 °F 35.6 °F 28% 29.90 in 10.0 mi SSW 18.4 mph 24.2 mph N/A   Clear
8:20 AM 71.6 °F 35.6 °F 27% 29.90 in 10.0 mi SW 18.4 mph - N/A   Clear
8:40 AM 71.6 °F 37.4 °F 29% 29.90 in 10.0 mi WSW 13.8 mph 21.9 mph N/A   Clear
9:00 AM 73.4 °F 37.4 °F 27% 29.90 in 10.0 mi West 19.6 mph - N/A   Clear
9:20 AM 75.2 °F 37.4 °F 25% 29.90 in 10.0 mi West 21.9 mph - N/A   Clear
9:40 AM 75.2 °F 35.6 °F 24% 29.90 in 10.0 mi West 24.2 mph - N/A   Clear
10:00 AM 75.2 °F 35.6 °F 24% 29.89 in 10.0 mi West 24.2 mph 31.1 mph N/A   Clear
10:20 AM 77.0 °F 37.4 °F 24% 29.89 in 10.0 mi West 24.2 mph 31.1 mph N/A   Clear
10:40 AM 75.2 °F 35.6 °F 24% 29.89 in 10.0 mi West 26.5 mph 33.4 mph N/A   Clear
11:00 AM 75.2 °F 35.6 °F 24% 29.89 in 10.0 mi West 27.6 mph - N/A   Clear
11:20 AM 77.0 °F 35.6 °F 22% 29.89 in 10.0 mi West 28.8 mph 34.5 mph N/A   Clear
11:40 AM 77.0 °F 35.6 °F 22% 29.89 in 10.0 mi WNW 23.0 mph 35.7 mph N/A   Clear
12:00 PM 77.0 °F 35.6 °F 22% 29.90 in 10.0 mi West 24.2 mph 32.2 mph N/A   Clear
12:20 PM 78.8 °F 37.4 °F 23% 29.89 in 10.0 mi WNW 28.8 mph - N/A   Clear
12:40 PM 78.8 °F 37.4 °F 23% 29.88 in 10.0 mi WNW 27.6 mph 34.5 mph N/A   Clear
1:00 PM 78.8 °F 37.4 °F 23% 29.88 in 10.0 mi WNW 25.3 mph 36.8 mph N/A   Clear
1:20 PM 78.8 °F 37.4 °F 23% 29.87 in 10.0 mi West 25.3 mph 32.2 mph N/A   Clear
1:40 PM 78.8 °F 39.2 °F 24% 29.87 in 10.0 mi WNW 27.6 mph 36.8 mph N/A   Clear
2:00 PM 80.6 °F 39.2 °F 23% 29.87 in 10.0 mi WNW 23.0 mph 34.5 mph N/A   Clear
2:20 PM 78.8 °F 39.2 °F 24% 29.86 in 10.0 mi WNW 20.7 mph 35.7 mph N/A   Clear
2:40 PM 78.8 °F 39.2 °F 24% 29.86 in 10.0 mi WNW 27.6 mph 36.8 mph N/A   Clear
3:00 PM 78.8 °F 37.4 °F 23% 29.85 in 10.0 mi WNW 29.9 mph 35.7 mph N/A   Clear
3:20 PM 78.8 °F 37.4 °F 23% 29.86 in 10.0 mi WNW 24.2 mph 33.4 mph N/A   Clear
3:40 PM 78.8 °F 37.4 °F 23% 29.86 in 10.0 mi WNW 20.7 mph 36.8 mph N/A   Clear
4:00 PM 78.8 °F 35.6 °F 21% 29.86 in 10.0 mi WNW 26.5 mph 36.8 mph N/A   Clear
4:20 PM 78.8 °F 35.6 °F 21% 29.86 in 10.0 mi West 29.9 mph 38.0 mph N/A   Clear
4:40 PM 77.0 °F 35.6 °F 22% 29.86 in 10.0 mi West 26.5 mph - N/A   Clear
5:00 PM 77.0 °F 33.8 °F 21% 29.85 in 10.0 mi West 27.6 mph 36.8 mph N/A   Clear
5:20 PM 75.2 °F 33.8 °F 22% 29.86 in 10.0 mi West 28.8 mph 38.0 mph N/A   Clear
5:40 PM 75.2 °F 33.8 °F 22% 29.87 in 10.0 mi West 29.9 mph 39.1 mph N/A   Clear
6:00 PM 73.4 °F 33.8 °F 23% 29.86 in 10.0 mi West 28.8 mph - N/A   Clear
6:20 PM 73.4 °F 32.0 °F 22% 29.86 in 10.0 mi WSW 25.3 mph 32.2 mph N/A   Clear
6:40 PM 71.6 °F 32.0 °F 23% 29.86 in 10.0 mi WSW 31.1 mph - N/A   Clear
7:00 PM 71.6 °F 33.8 °F 25% 29.86 in 10.0 mi West 24.2 mph 38.0 mph N/A   Clear
7:20 PM 69.8 °F 33.8 °F 27% 29.87 in 10.0 mi West 23.0 mph 39.1 mph N/A   Clear
7:40 PM 68.0 °F 30.2 °F 24% 29.88 in 10.0 mi West 21.9 mph 34.5 mph N/A   Clear
8:00 PM 68.0 °F 30.2 °F 24% 29.89 in 10.0 mi WSW 20.7 mph 29.9 mph N/A   Clear
8:20 PM 66.2 °F 32.0 °F 28% 29.89 in 10.0 mi WSW 18.4 mph - N/A   Clear
8:40 PM 66.2 °F 32.0 °F 28% 29.88 in 10.0 mi West 24.2 mph - N/A   Clear
9:00 PM 66.2 °F 30.2 °F 26% 29.88 in 10.0 mi West 21.9 mph 31.1 mph N/A   Clear
9:20 PM 64.4 °F 30.2 °F 28% 29.88 in 10.0 mi West 24.2 mph 31.1 mph N/A   Clear
9:40 PM 64.4 °F 30.2 °F 28% 29.88 in 10.0 mi West 27.6 mph 36.8 mph N/A   Clear
10:00 PM 66.2 °F 26.6 °F 23% 29.88 in 10.0 mi West 26.5 mph 40.3 mph N/A   Clear
10:20 PM 64.4 °F 23.0 °F 21% 29.89 in 10.0 mi WNW 29.9 mph - N/A   Clear
10:40 PM 64.4 °F 26.6 °F 24% 29.89 in 10.0 mi WNW 29.9 mph 43.7 mph N/A   Clear
11:00 PM 64.4 °F 30.2 °F 28% 29.89 in 10.0 mi NW 31.1 mph 40.3 mph N/A   Clear
11:20 PM 64.4 °F 32.0 °F 30% 29.87 in 10.0 mi NW 31.1 mph 43.7 mph N/A   Clear
11:40 PM 62.6 °F 32.0 °F 32% 29.87 in 10.0 mi NW 32.2 mph 43.7 mph N/A   Clear